Time;durP1;ratioP1;P1;durP2;ratioP2;P2;SDS_P1;SDS_P2;PMS_P1;PMS_P2;Temp;Humidity;BMP_temperature;BMP_pressure;BME280_temperature;BME280_humidity;BME280_pressure;Samples;Min_cycle;Max_cycle;Signal;HPM_P1;HPM_P2
2020/12/23 00:00:55;;;;;;;4.10;3.20;;;;;;;10.94;100.00;98155.15;3695827;78;43956;-19
2020/12/23 00:06:00;;;;;;;3.75;2.90;;;;;;;10.91;100.00;98146.05;3730675;78;43606;-19
2020/12/23 00:11:07;;;;;;;5.20;3.77;;;;;;;10.90;100.00;98150.61;3697705;78;43686;-19
2020/12/23 00:16:13;;;;;;;5.17;3.22;;;;;;;10.89;100.00;98158.84;3726192;78;43400;-19
2020/12/23 00:21:19;;;;;;;3.57;2.90;;;;;;;10.86;100.00;98149.77;3709067;78;44017;-20
2020/12/23 00:26:25;;;;;;;4.83;3.00;;;;;;;10.87;100.00;98147.42;3695458;78;43357;-19
2020/12/23 00:31:30;;;;;;;4.30;3.23;;;;;;;10.86;100.00;98147.08;3701927;78;43731;-19
2020/12/23 00:36:36;;;;;;;4.00;3.47;;;;;;;10.82;100.00;98137.64;3711985;78;42819;-19
2020/12/23 00:41:44;;;;;;;3.43;3.13;;;;;;;10.77;100.00;98130.08;3734047;78;44387;-19
2020/12/23 00:46:53;;;;;;;5.05;3.65;;;;;;;10.73;100.00;98128.72;3697900;78;43983;-20
2020/12/23 00:51:59;;;;;;;5.13;3.67;;;;;;;10.70;100.00;98125.86;3733804;77;44066;-19
2020/12/23 00:57:05;;;;;;;5.60;3.70;;;;;;;10.68;100.00;98140.00;3739036;78;69468;-19
2020/12/23 01:02:11;;;;;;;3.10;2.77;;;;;;;10.64;100.00;98134.12;3642241;80;44734;-19
2020/12/23 01:07:17;;;;;;;5.85;3.70;;;;;;;10.62;100.00;98136.66;3614389;80;44567;-19
2020/12/23 01:12:24;;;;;;;4.78;3.60;;;;;;;10.63;100.00;98134.30;3693166;80;43730;-19
2020/12/23 01:17:30;;;;;;;4.65;3.22;;;;;;;10.54;100.00;98150.09;3602264;81;43314;-19
2020/12/23 01:22:38;;;;;;;5.08;3.62;;;;;;;10.57;100.00;98156.02;3697455;80;43399;-19
2020/12/23 01:27:44;;;;;;;6.77;3.60;;;;;;;10.58;100.00;98154.16;3740394;78;44105;-19
2020/12/23 01:32:50;;;;;;;4.12;3.40;;;;;;;10.59;100.00;98158.53;3714318;78;43417;-17
2020/12/23 01:37:56;;;;;;;5.85;3.95;;;;;;;10.56;100.00;98157.02;3721067;78;43927;-17
2020/12/23 01:43:03;;;;;;;6.20;4.03;;;;;;;10.53;100.00;98165.92;3711966;79;43690;-18
2020/12/23 01:48:15;;;;;;;6.10;3.95;;;;;;;10.50;100.00;98152.29;3718197;79;44079;-18
2020/12/23 01:53:22;;;;;;;5.83;4.03;;;;;;;10.49;100.00;98157.34;3717249;79;43726;-18
2020/12/23 01:58:27;;;;;;;5.87;3.95;;;;;;;10.47;100.00;98170.98;3712854;78;43483;-18
2020/12/23 02:03:33;;;;;;;5.10;3.70;;;;;;;10.38;100.00;98186.80;3713469;79;44077;-18
2020/12/23 02:08:42;;;;;;;6.67;4.45;;;;;;;10.27;100.00;98169.59;3722236;78;44521;-18
2020/12/23 02:13:48;;;;;;;6.13;4.57;;;;;;;10.28;100.00;98172.62;3714894;79;69057;-18
2020/12/23 02:18:54;;;;;;;4.23;3.30;;;;;;;10.31;100.00;98165.53;3715904;79;65390;-18
2020/12/23 02:24:01;;;;;;;5.30;3.90;;;;;;;10.30;100.00;98157.11;3712039;79;44019;-17
2020/12/23 02:29:07;;;;;;;5.55;3.90;;;;;;;10.31;100.00;98148.03;3744025;77;43518;-18
2020/12/23 02:34:13;;;;;;;5.95;4.30;;;;;;;10.32;100.00;98138.95;3768086;78;44007;-18
2020/12/23 02:39:19;;;;;;;6.03;3.73;;;;;;;10.32;100.00;98128.18;3774364;77;44435;-17
2020/12/23 02:44:24;;;;;;;5.20;3.67;;;;;;;10.30;100.00;98120.28;3778832;76;44492;-17
2020/12/23 02:49:31;;;;;;;4.73;3.00;;;;;;;10.26;100.00;98101.94;3781065;77;43413;-17
2020/12/23 02:54:38;;;;;;;5.10;2.60;;;;;;;10.27;100.00;98095.55;3766404;77;44018;-18
2020/12/23 02:59:44;;;;;;;2.80;2.17;;;;;;;10.27;100.00;98078.05;3779591;77;43456;-17
2020/12/23 03:04:49;;;;;;;2.22;1.98;;;;;;;10.21;100.00;98072.83;3757815;77;43087;-18
2020/12/23 03:09:56;;;;;;;2.87;1.90;;;;;;;10.15;100.00;98058.67;3779883;77;43492;-19
2020/12/23 03:15:01;;;;;;;3.63;1.80;;;;;;;10.11;100.00;98058.69;3778727;76;44114;-18
2020/12/23 03:20:07;;;;;;;2.08;1.65;;;;;;;10.09;100.00;98059.36;3775078;78;44579;-16
2020/12/23 03:25:14;;;;;;;1.77;1.40;;;;;;;10.10;100.00;98057.83;3765219;77;43689;-16
2020/12/23 03:30:20;;;;;;;2.95;1.70;;;;;;;10.11;100.00;98051.96;3748582;78;44073;-17
2020/12/23 03:35:26;;;;;;;2.45;1.35;;;;;;;10.12;100.00;98063.03;3712529;79;43488;-17
2020/12/23 03:40:32;;;;;;;2.50;1.60;;;;;;;10.13;100.00;98056.16;3728633;79;43981;-17
2020/12/23 03:45:39;;;;;;;3.08;1.60;;;;;;;10.07;100.00;98058.16;3719083;78;43448;-17
2020/12/23 03:50:45;;;;;;;3.12;1.45;;;;;;;10.08;100.00;98063.05;3731567;79;43278;-17
2020/12/23 03:55:50;;;;;;;3.40;1.62;;;;;;;10.09;100.00;98060.19;3713927;79;43320;-17
2020/12/23 04:00:56;;;;;;;2.07;1.20;;;;;;;10.06;100.00;98057.82;3732050;78;44106;-17
2020/12/23 04:06:02;;;;;;;1.73;1.33;;;;;;;10.09;100.00;98052.63;3714137;79;73877;-17
2020/12/23 04:11:08;;;;;;;2.43;1.43;;;;;;;10.07;100.00;98041.19;3722869;79;43681;-17
2020/12/23 04:16:15;;;;;;;2.40;1.60;;;;;;;10.09;100.00;98053.45;3725867;78;43698;-17
2020/12/23 04:21:21;;;;;;;2.83;1.52;;;;;;;10.12;100.00;98058.52;3721588;77;44011;-16
2020/12/23 04:26:27;;;;;;;2.83;2.00;;;;;;;10.11;100.00;98068.11;3729649;79;43275;-16
2020/12/23 04:31:33;;;;;;;3.50;2.33;;;;;;;10.06;100.00;98063.20;3771125;77;44112;-17
2020/12/23 04:36:40;;;;;;;3.35;2.12;;;;;;;10.08;100.00;98073.30;3780453;76;44063;-17
2020/12/23 04:41:46;;;;;;;5.83;2.47;;;;;;;10.00;100.00;98072.78;3774954;77;44036;-17
2020/12/23 04:46:52;;;;;;;3.00;2.33;;;;;;;9.99;100.00;98074.31;3773353;78;44032;-17
2020/12/23 04:51:58;;;;;;;3.85;2.58;;;;;;;10.01;100.00;98077.68;3788787;76;44141;-17
2020/12/23 04:57:04;;;;;;;3.67;3.05;;;;;;;9.99;100.00;98076.52;3774516;78;43354;-17
2020/12/23 05:02:11;;;;;;;4.25;3.15;;;;;;;9.95;100.00;98073.80;3776479;77;43682;-18
2020/12/23 05:07:21;;;;;;;3.37;2.55;;;;;;;9.97;100.00;98076.31;3774334;77;73136;-17
2020/12/23 05:12:27;;;;;;;2.95;2.65;;;;;;;9.99;100.00;98077.00;3778072;77;44003;-17
2020/12/23 05:17:34;;;;;;;4.92;3.10;;;;;;;9.97;100.00;98073.63;3776591;77;44725;-17
2020/12/23 05:22:41;;;;;;;5.10;3.50;;;;;;;9.96;100.00;98066.07;3782029;76;44059;-17
2020/12/23 05:27:49;;;;;;;5.30;3.10;;;;;;;9.97;100.00;98077.66;3776406;78;43694;-17
2020/12/23 05:32:56;;;;;;;3.75;3.12;;;;;;;9.98;100.00;98077.52;3776118;77;43335;-17
2020/12/23 05:38:02;;;;;;;5.17;4.08;;;;;;;9.95;100.00;98076.98;3766918;78;44892;-17
2020/12/23 05:43:08;;;;;;;2.98;2.67;;;;;;;9.96;100.00;98071.94;3768495;78;43735;-17
2020/12/23 05:48:14;;;;;;;3.62;2.67;;;;;;;10.01;100.00;98074.47;3775258;78;43721;-18
2020/12/23 05:53:21;;;;;;;3.17;2.50;;;;;;;10.02;100.00;98073.98;3781475;77;43669;-18
2020/12/23 05:58:30;;;;;;;3.52;2.45;;;;;;;10.05;100.00;98079.53;3776522;77;44023;-18
2020/12/23 06:04:07;;;;;;;3.75;3.08;;;;;;;9.98;100.00;98076.17;3772406;77;44029;-18
2020/12/23 06:09:17;;;;;;;3.47;2.58;;;;;;;10.01;100.00;98084.41;3764574;78;43837;-18
2020/12/23 06:14:24;;;;;;;4.25;2.62;;;;;;;10.02;100.00;98080.20;3755959;78;43254;-18
2020/12/23 06:19:36;;;;;;;4.10;3.50;;;;;;;10.05;100.00;98088.47;3774298;77;64787;-18
2020/12/23 06:24:39;;;;;;;8.45;5.50;;;;;;;10.02;100.00;98088.78;3774157;77;43144;-18
2020/12/23 06:29:47;;;;;;;6.67;5.00;;;;;;;10.01;100.00;98088.45;3717176;78;44002;-18
2020/12/23 06:34:58;;;;;;;4.45;3.30;;;;;;;10.02;100.00;98090.95;3635423;80;64973;-18
2020/12/23 06:40:10;;;;;;;6.23;4.10;;;;;;;10.02;100.00;98086.09;3639340;81;69153;-18
2020/12/23 06:45:20;;;;;;;7.70;5.08;;;;;;;10.04;100.00;98080.05;3630621;81;43501;-18
2020/12/23 06:50:33;;;;;;;6.00;4.00;;;;;;;10.00;100.00;98084.89;3691472;79;43689;-18
2020/12/23 06:55:48;;;;;;;4.27;3.40;;;;;;;10.02;100.00;98086.09;3688330;78;43048;-18
2020/12/23 07:00:59;;;;;;;4.65;3.30;;;;;;;10.02;100.00;98085.58;3710738;78;43684;-18
2020/12/23 07:06:05;;;;;;;4.10;2.75;;;;;;;10.00;100.00;98084.07;3697639;80;43938;-18
2020/12/23 07:11:14;;;;;;;3.10;2.53;;;;;;;9.97;100.00;98086.59;3708275;79;42862;-18
2020/12/23 07:16:22;;;;;;;4.45;3.35;;;;;;;9.99;100.00;98091.80;3701219;79;44047;-18
2020/12/23 07:21:28;;;;;;;4.03;2.92;;;;;;;9.97;100.00;98087.08;3709696;79;43366;-18
2020/12/23 07:26:38;;;;;;;3.53;2.50;;;;;;;9.99;100.00;98088.63;3708621;80;43268;-18
2020/12/23 07:31:45;;;;;;;3.30;2.30;;;;;;;10.00;100.00;98095.66;3700936;78;43490;-18
2020/12/23 07:36:54;;;;;;;3.70;2.23;;;;;;;9.98;100.00;98092.31;3687324;79;43406;-18
2020/12/23 07:42:03;;;;;;;3.30;2.10;;;;;;;9.96;100.00;98097.02;3767449;77;44403;-18
2020/12/23 07:47:09;;;;;;;3.43;1.60;;;;;;;9.96;100.00;98094.33;3762269;78;43459;-18
2020/12/23 07:52:16;;;;;;;2.75;1.50;;;;;;;9.99;100.00;98099.39;3765345;78;43615;-18
2020/12/23 07:57:31;;;;;;;2.27;1.40;;;;;;;10.03;100.00;98098.03;3762039;78;43689;-18
2020/12/23 08:02:37;;;;;;;1.40;1.25;;;;;;;10.07;100.00;98089.63;3775275;76;44019;-18
2020/12/23 08:07:44;;;;;;;2.00;1.40;;;;;;;10.08;100.00;98086.77;3761900;78;73219;-18
2020/12/23 08:12:56;;;;;;;2.70;1.50;;;;;;;10.10;100.00;98075.84;3765209;78;44044;-18
2020/12/23 08:18:03;;;;;;;2.12;1.30;;;;;;;10.11;100.00;98074.84;3762330;77;44150;-18
2020/12/23 08:23:10;;;;;;;1.90;1.40;;;;;;;10.12;100.00;98081.88;3755236;77;44046;-18
2020/12/23 08:28:19;;;;;;;1.47;1.10;;;;;;;10.12;100.00;98080.53;3763120;77;43721;-18
2020/12/23 08:33:26;;;;;;;2.47;1.40;;;;;;;10.18;100.00;98078.54;3742353;78;43720;-18
2020/12/23 08:38:32;;;;;;;2.40;1.37;;;;;;;10.22;100.00;98075.86;3657444;79;42854;-18
2020/12/23 08:43:44;;;;;;;3.43;1.50;;;;;;;10.24;100.00;98069.78;3727303;79;43360;-17
2020/12/23 08:48:51;;;;;;;2.27;1.10;;;;;;;10.31;100.00;98072.64;3721965;79;44013;-18
2020/12/23 08:53:59;;;;;;;1.90;1.20;;;;;;;10.33;100.00;98070.63;3723458;78;43335;-17
2020/12/23 08:59:09;;;;;;;1.55;1.20;;;;;;;10.38;100.00;98075.05;3710494;78;44011;-17
2020/12/23 09:04:17;;;;;;;2.55;1.00;;;;;;;10.42;100.00;98066.95;3723309;78;43642;-17
2020/12/23 09:09:27;;;;;;;1.10;1.00;;;;;;;10.46;100.00;98060.22;3683974;79;44877;-17
2020/12/23 09:14:36;;;;;;;1.50;1.10;;;;;;;10.46;100.00;98055.36;3668591;80;44078;-17
2020/12/23 09:19:55;;;;;;;2.27;1.20;;;;;;;10.43;100.00;98068.63;3669417;80;43424;-17
2020/12/23 09:25:25;;;;;;;2.05;1.50;;;;;;;10.50;100.00;98074.70;3610880;81;43710;-17
2020/12/23 09:30:40;;;;;;;2.40;1.43;;;;;;;10.58;100.00;98076.03;3672360;80;43184;-17
2020/12/23 09:35:48;;;;;;;2.10;1.60;;;;;;;10.67;100.00;98075.01;3648598;81;73277;-17
2020/12/23 09:40:55;;;;;;;2.30;1.70;;;;;;;10.73;100.00;98076.17;3667010;79;43479;-17
2020/12/23 09:46:05;;;;;;;2.35;1.95;;;;;;;10.78;100.00;98077.34;3657133;81;44370;-18
2020/12/23 09:51:12;;;;;;;3.70;1.73;;;;;;;10.85;100.00;98073.98;3670515;79;73186;-17
2020/12/23 09:56:18;;;;;;;13.78;5.85;;;;;;;10.85;100.00;98069.94;3673018;79;43669;-17
2020/12/23 10:01:23;;;;;;;2.63;2.10;;;;;;;10.95;100.00;98058.45;3679669;79;43393;-17
2020/12/23 10:06:30;;;;;;;9.73;4.47;;;;;;;10.98;100.00;98054.08;3668475;81;43278;-18
2020/12/23 10:11:36;;;;;;;4.63;3.13;;;;;;;11.00;100.00;98053.89;3683606;79;44142;-17
2020/12/23 10:16:44;;;;;;;3.15;2.30;;;;;;;11.00;100.00;98043.94;3662590;79;42857;-18
2020/12/23 10:21:50;;;;;;;3.42;2.50;;;;;;;11.00;100.00;98038.55;3667085;81;43347;-17
2020/12/23 10:26:56;;;;;;;3.83;1.65;;;;;;;11.01;100.00;98028.09;3666750;79;43434;-18
2020/12/23 10:32:02;;;;;;;2.05;1.40;;;;;;;10.99;100.00;98008.59;3668795;79;43290;-18
2020/12/23 10:37:08;;;;;;;2.67;1.90;;;;;;;11.11;100.00;98014.42;3577139;81;43418;-18
2020/12/23 10:42:16;;;;;;;3.10;2.10;;;;;;;11.14;100.00;98011.87;3684313;79;43420;-17
2020/12/23 10:47:22;;;;;;;5.63;3.90;;;;;;;11.10;100.00;98004.16;3677668;80;43691;-17
2020/12/23 10:52:29;;;;;;;2.80;2.22;;;;;;;11.18;100.00;97984.91;3667947;80;44076;-17
2020/12/23 10:57:36;;;;;;;2.52;1.87;;;;;;;11.17;100.00;97977.84;3575935;82;43683;-17
2020/12/23 11:02:42;;;;;;;3.37;1.70;;;;;;;11.12;100.00;97975.67;3635193;79;686924;-17
2020/12/23 11:07:48;;;;;;;2.25;1.60;;;;;;;11.10;100.00;97958.83;3592654;81;44467;-17
2020/12/23 11:12:54;;;;;;;2.42;1.98;;;;;;;11.10;100.00;97949.39;3595780;81;44027;-18
2020/12/23 11:18:01;;;;;;;2.25;1.92;;;;;;;11.09;100.00;97940.48;3582345;81;44508;-17
2020/12/23 11:23:07;;;;;;;1.82;1.70;;;;;;;11.12;100.00;97942.46;3549209;82;44095;-17
2020/12/23 11:28:13;;;;;;;2.15;1.70;;;;;;;11.16;100.00;97937.92;3544257;83;43735;-17
2020/12/23 11:33:19;;;;;;;2.05;1.70;;;;;;;11.24;100.00;97942.40;3537773;80;44093;-18
2020/12/23 11:38:26;;;;;;;2.52;1.80;;;;;;;11.27;100.00;97935.83;3617921;81;44070;-17
2020/12/23 11:43:32;;;;;;;2.17;1.95;;;;;;;11.33;100.00;97913.04;3649321;80;43259;-17
2020/12/23 11:48:41;;;;;;;2.15;1.95;;;;;;;11.36;100.00;97905.91;3589197;81;43960;-17
2020/12/23 11:53:47;;;;;;;2.50;2.22;;;;;;;11.41;100.00;97904.88;3550224;82;43278;-17
2020/12/23 11:58:53;;;;;;;3.92;2.37;;;;;;;11.51;100.00;97893.01;3587047;81;43317;-17
2020/12/23 12:03:59;;;;;;;2.40;1.82;;;;;;;11.57;100.00;97893.66;3587546;81;44031;-17
2020/12/23 12:09:05;;;;;;;1.60;1.43;;;;;;;11.55;100.00;97899.20;3600334;81;43494;-18
2020/12/23 12:14:11;;;;;;;1.80;1.55;;;;;;;11.58;100.00;97897.17;3593229;82;43394;-17
2020/12/23 12:19:17;;;;;;;2.70;2.10;;;;;;;11.62;100.00;97885.84;3600724;81;44082;-18
2020/12/23 12:24:23;;;;;;;1.60;1.50;;;;;;;11.76;100.00;97880.14;3510293;83;42861;-17
2020/12/23 12:29:29;;;;;;;2.55;1.20;;;;;;;11.78;100.00;97870.53;3517461;83;43717;-18
2020/12/23 12:34:34;;;;;;;1.15;1.05;;;;;;;11.71;100.00;97866.37;3617043;81;73286;-17
2020/12/23 12:39:40;;;;;;;2.10;1.62;;;;;;;11.69;100.00;97862.52;3620779;81;44623;-17
2020/12/23 12:44:47;;;;;;;1.47;1.33;;;;;;;11.79;100.00;97861.42;3603384;82;43414;-17
2020/12/23 12:49:53;;;;;;;2.47;1.37;;;;;;;11.72;100.00;97846.47;3621153;81;44072;-18
2020/12/23 12:54:59;;;;;;;1.20;1.10;;;;;;;11.82;100.00;97835.39;3610808;81;43410;-17
2020/12/23 13:00:05;;;;;;;1.65;1.42;;;;;;;11.81;100.00;97828.34;3621043;81;44034;-18
2020/12/23 13:05:11;;;;;;;1.80;1.20;;;;;;;11.82;100.00;97813.80;3656403;81;44438;-18
2020/12/23 13:10:17;;;;;;;1.83;1.20;;;;;;;11.84;100.00;97807.72;3590427;81;73257;-18
2020/12/23 13:15:23;;;;;;;1.30;1.10;;;;;;;11.84;100.00;97799.13;3579692;83;44032;-18
2020/12/23 13:20:29;;;;;;;1.30;1.02;;;;;;;11.84;100.00;97792.38;3646212;80;43511;-18
2020/12/23 13:25:37;;;;;;;0.95;0.90;;;;;;;11.75;100.00;97774.60;3578142;81;43682;-18
2020/12/23 13:30:43;;;;;;;1.02;0.80;;;;;;;11.74;100.00;97779.67;3583223;81;43288;-18
2020/12/23 13:35:49;;;;;;;1.00;0.85;;;;;;;11.73;100.00;97783.39;3651506;81;44046;-18
2020/12/23 13:40:56;;;;;;;1.15;1.05;;;;;;;11.71;100.00;97776.80;3611753;81;43342;-18
2020/12/23 13:46:01;;;;;;;1.07;0.88;;;;;;;11.66;100.00;97767.59;3574154;82;44320;-18
2020/12/23 13:51:10;;;;;;;2.15;1.05;;;;;;;11.68;100.00;97756.11;3602176;81;43468;-18
2020/12/23 13:56:17;;;;;;;1.30;1.10;;;;;;;11.66;100.00;97742.81;3581651;82;44039;-18
2020/12/23 14:01:23;;;;;;;1.50;1.23;;;;;;;11.63;100.00;97735.08;3581897;81;43647;-18
2020/12/23 14:06:28;;;;;;;1.62;1.30;;;;;;;11.56;100.00;97723.36;3574037;83;44171;-18
2020/12/23 14:11:34;;;;;;;3.93;2.33;;;;;;;11.51;100.00;97720.37;3629812;81;43713;-19
2020/12/23 14:16:40;;;;;;;2.70;1.95;;;;;;;11.38;100.00;97707.01;3637161;81;44032;-18
2020/12/23 14:21:48;;;;;;;2.67;1.80;;;;;;;11.38;100.00;97694.05;3647015;80;43104;-18
2020/12/23 14:26:55;;;;;;;1.87;1.52;;;;;;;11.36;100.00;97679.91;3633019;80;43428;-18
2020/12/23 14:32:01;;;;;;;1.60;1.40;;;;;;;11.39;100.00;97685.77;3661050;80;44275;-18
2020/12/23 14:37:07;;;;;;;2.30;1.60;;;;;;;11.35;100.00;97686.32;3554428;82;43703;-18
2020/12/23 14:42:14;;;;;;;2.53;1.90;;;;;;;11.28;100.00;97668.69;3478712;84;44022;-18
2020/12/23 14:47:20;;;;;;;2.60;2.27;;;;;;;11.27;100.00;97653.53;3555650;83;43230;-16
2020/12/23 14:52:26;;;;;;;3.17;2.50;;;;;;;11.21;100.00;97648.38;3575039;82;44085;-18
2020/12/23 14:57:32;;;;;;;3.62;2.10;;;;;;;11.25;100.00;97642.94;3627063;81;44685;-18
2020/12/23 15:02:38;;;;;;;2.67;2.10;;;;;;;11.28;100.00;97634.98;3558175;82;43770;-18
2020/12/23 15:07:45;;;;;;;2.42;2.00;;;;;;;11.30;100.00;97630.25;3549969;83;43698;-18
2020/12/23 15:13:01;;;;;;;2.43;1.40;;;;;;;11.30;100.00;97624.00;3566462;82;43688;-18
2020/12/23 15:18:07;;;;;;;3.08;2.50;;;;;;;11.30;100.00;97615.91;3637903;80;73289;-18
2020/12/23 15:23:13;;;;;;;2.13;1.50;;;;;;;11.28;100.00;97613.41;3559911;82;43295;-18
2020/12/23 15:28:20;;;;;;;8.30;7.37;;;;;;;11.29;100.00;97616.44;3553466;83;43990;-18
2020/12/23 15:33:26;;;;;;;2.30;2.10;;;;;;;11.28;100.00;97618.81;3546973;82;43729;-18
2020/12/23 15:38:31;;;;;;;2.03;1.50;;;;;;;11.27;100.00;97625.22;3556200;82;44094;-18
2020/12/23 15:43:38;;;;;;;3.50;2.40;;;;;;;11.24;100.00;97622.39;3555574;83;43449;-18
2020/12/23 15:48:46;;;;;;;4.15;2.55;;;;;;;11.23;100.00;97609.11;3548312;82;43721;-18
2020/12/23 15:53:53;;;;;;;3.72;3.33;;;;;;;11.20;100.00;97595.99;3554833;83;43053;-18
2020/12/23 15:58:59;;;;;;;4.00;2.72;;;;;;;11.17;100.00;97581.53;3580046;82;44051;-18
2020/12/23 16:04:05;;;;;;;4.10;3.10;;;;;;;11.10;100.00;97575.55;3632442;80;64878;-18
2020/12/23 16:09:12;;;;;;;6.15;3.30;;;;;;;11.08;100.00;97565.45;3559759;82;43669;-17
2020/12/23 16:14:18;;;;;;;4.60;3.08;;;;;;;11.04;100.00;97552.02;3587092;82;44088;-17
2020/12/23 16:19:25;;;;;;;4.03;2.90;;;;;;;11.05;100.00;97546.13;3647437;80;44019;-17
2020/12/23 16:24:31;;;;;;;3.62;2.60;;;;;;;11.05;100.00;97536.17;3633476;80;44089;-18
2020/12/23 16:29:37;;;;;;;3.10;2.80;;;;;;;11.00;100.00;97531.83;3561785;82;43669;-18
2020/12/23 16:34:43;;;;;;;5.00;4.50;;;;;;;11.05;100.00;97523.22;3586731;82;43282;-18
2020/12/23 16:39:50;;;;;;;2.87;2.67;;;;;;;11.05;100.00;97511.91;3667535;80;44018;-18
2020/12/23 16:44:56;;;;;;;2.57;2.07;;;;;;;11.02;100.00;97504.19;3649915;80;43656;-18
2020/12/23 16:50:03;;;;;;;3.70;2.40;;;;;;;11.02;100.00;97512.80;3616897;81;43576;-18
2020/12/23 16:55:09;;;;;;;3.10;2.60;;;;;;;10.97;100.00;97501.73;3650309;79;43401;-18
2020/12/23 17:00:15;;;;;;;4.65;3.52;;;;;;;10.90;100.00;97511.07;3608371;81;44399;-18
2020/12/23 17:05:23;;;;;;;4.87;3.70;;;;;;;10.83;100.00;97501.55;3637367;81;44202;-18
2020/12/23 17:10:29;;;;;;;4.08;3.58;;;;;;;10.87;100.00;97488.56;3664850;80;44080;-18
2020/12/23 17:15:35;;;;;;;6.20;4.00;;;;;;;10.81;100.00;97485.25;3571097;82;69448;-17
2020/12/23 17:20:42;;;;;;;5.60;4.30;;;;;;;10.78;100.00;97476.51;3613465;81;43374;-17
2020/12/23 17:25:48;;;;;;;6.10;5.00;;;;;;;10.75;100.00;97476.91;3632734;81;44450;-18
2020/12/23 17:30:54;;;;;;;6.85;5.30;;;;;;;10.73;100.00;97470.01;3651996;80;44994;-18
2020/12/23 17:36:00;;;;;;;5.70;5.10;;;;;;;10.73;100.00;97471.36;3573199;82;44483;-18
2020/12/23 17:41:06;;;;;;;6.08;4.97;;;;;;;10.67;100.00;97474.28;3597155;82;44080;-19
2020/12/23 17:46:12;;;;;;;10.30;5.50;;;;;;;10.69;100.00;97466.86;3627161;81;44095;-19
2020/12/23 17:51:19;;;;;;;8.45;6.25;;;;;;;10.71;100.00;97461.27;3581662;82;44077;-19
2020/12/23 17:56:27;;;;;;;7.72;6.10;;;;;;;10.71;100.00;97459.43;3554835;81;43983;-21
2020/12/23 18:01:35;;;;;;;6.90;5.97;;;;;;;10.67;100.00;97457.30;3557490;82;44387;-19
2020/12/23 18:06:43;;;;;;;7.90;6.40;;;;;;;10.64;100.00;97459.34;3571075;82;43388;-19
2020/12/23 18:11:51;;;;;;;7.95;6.75;;;;;;;10.66;100.00;97458.31;3547015;82;44055;-19
2020/12/23 18:16:58;;;;;;;9.60;7.53;;;;;;;10.68;100.00;97454.41;3545850;82;43427;-19
2020/12/23 18:22:04;;;;;;;14.23;10.27;;;;;;;10.70;100.00;97452.89;3559063;82;44094;-19
2020/12/23 18:27:11;;;;;;;13.63;8.93;;;;;;;10.72;100.00;97452.17;3558666;82;43685;-19
2020/12/23 18:32:17;;;;;;;5.90;4.90;;;;;;;10.73;100.00;97437.19;3640923;80;43476;-19
2020/12/23 18:37:22;;;;;;;3.55;3.12;;;;;;;10.77;100.00;97446.55;3555158;83;43364;-19
2020/12/23 18:42:28;;;;;;;2.62;1.90;;;;;;;10.76;100.00;97438.14;3562196;82;44563;-18
2020/12/23 18:47:34;;;;;;;2.08;1.40;;;;;;;10.77;100.00;97453.28;3556229;83;44689;-19
2020/12/23 18:52:41;;;;;;;2.23;1.60;;;;;;;10.82;100.00;97451.90;3563121;82;43263;-19
2020/12/23 18:57:48;;;;;;;2.13;1.73;;;;;;;10.86;100.00;97459.94;3563304;82;44081;-18
2020/12/23 19:02:54;;;;;;;1.63;1.53;;;;;;;10.83;100.00;97456.27;3584744;81;44010;-18
2020/12/23 19:08:00;;;;;;;1.87;1.40;;;;;;;10.84;100.00;97460.11;3588119;81;44077;-19
2020/12/23 19:13:07;;;;;;;1.98;1.50;;;;;;;10.81;100.00;97455.12;3671854;79;43438;-17
2020/12/23 19:18:16;;;;;;;1.57;1.40;;;;;;;10.78;100.00;97460.88;3675048;79;44043;-18
2020/12/23 19:23:23;;;;;;;2.20;1.70;;;;;;;10.81;100.00;97452.92;3664546;80;42931;-18
2020/12/23 19:28:31;;;;;;;1.00;0.90;;;;;;;10.82;100.00;97443.81;3663126;80;73362;-18
2020/12/23 19:33:37;;;;;;;1.55;0.80;;;;;;;10.86;100.00;97449.17;3663632;80;43433;-18
2020/12/23 19:38:44;;;;;;;1.20;1.00;;;;;;;10.85;100.00;97443.45;3691902;78;43439;-18
2020/12/23 19:43:50;;;;;;;1.00;0.80;;;;;;;10.88;100.00;97466.81;3721333;79;43291;-18
2020/12/23 19:48:57;;;;;;;1.10;1.00;;;;;;;10.85;100.00;97451.01;3734672;78;43346;-18
2020/12/23 19:54:04;;;;;;;1.70;1.00;;;;;;;10.87;100.00;97445.45;3729524;78;43459;-19
2020/12/23 19:59:10;;;;;;;2.47;1.52;;;;;;;10.89;100.00;97429.41;3723997;79;44534;-18
2020/12/23 20:04:17;;;;;;;3.60;2.40;;;;;;;10.89;100.00;97421.33;3727905;79;43677;-18
2020/12/23 20:09:23;;;;;;;3.10;2.80;;;;;;;10.85;100.00;97416.51;3730313;79;44289;-19
2020/12/23 20:14:30;;;;;;;2.95;2.55;;;;;;;10.76;100.00;97410.37;3722595;79;44132;-19
2020/12/23 20:19:37;;;;;;;3.02;2.30;;;;;;;10.69;100.00;97394.13;3636035;80;43413;-19
2020/12/23 20:24:43;;;;;;;1.98;1.80;;;;;;;10.66;100.00;97381.03;3712408;78;44369;-19
2020/12/23 20:29:49;;;;;;;1.55;1.40;;;;;;;10.66;100.00;97367.56;3718107;79;44121;-18
2020/12/23 20:34:55;;;;;;;2.20;1.50;;;;;;;10.70;100.00;97359.44;3699207;79;44044;-18
2020/12/23 20:40:01;;;;;;;2.42;1.80;;;;;;;10.74;100.00;97376.91;3714769;79;44053;-18
2020/12/23 20:45:09;;;;;;;2.17;1.27;;;;;;;10.72;100.00;97411.27;3721181;79;44032;-18
2020/12/23 20:50:15;;;;;;;1.25;1.00;;;;;;;10.64;100.00;97441.83;3729877;78;44217;-19
2020/12/23 20:55:21;;;;;;;2.73;0.90;;;;;;;10.61;100.00;97437.33;3735983;78;43992;-19
2020/12/23 21:00:28;;;;;;;1.05;0.95;;;;;;;10.66;100.00;97457.79;3726848;79;44017;-18
2020/12/23 21:05:34;;;;;;;1.12;0.90;;;;;;;10.66;100.00;97466.40;3723054;79;43669;-18
2020/12/23 21:10:40;;;;;;;2.20;1.10;;;;;;;10.67;100.00;97443.30;3636107;81;44078;-18
2020/12/23 21:15:46;;;;;;;2.47;1.10;;;;;;;10.71;100.00;97437.03;3709620;79;43432;-18
2020/12/23 21:20:54;;;;;;;1.20;0.80;;;;;;;10.73;100.00;97420.17;3727571;79;43996;-18
2020/12/23 21:26:00;;;;;;;1.60;0.90;;;;;;;10.73;100.00;97447.97;3730718;78;43427;-18
2020/12/23 21:31:06;;;;;;;0.77;0.77;;;;;;;10.71;100.00;97441.92;3726481;79;43262;-18
2020/12/23 21:36:12;;;;;;;1.20;0.90;;;;;;;10.72;100.00;97442.74;3719871;79;44204;-18
2020/12/23 21:41:26;;;;;;;0.60;0.60;;;;;;;10.70;100.00;97442.13;3710178;79;43410;-19
2020/12/23 21:46:33;;;;;;;0.78;0.72;;;;;;;10.72;100.00;97434.16;3722403;79;43373;-18
2020/12/23 21:51:43;;;;;;;0.70;0.70;;;;;;;10.67;100.00;97436.57;3718870;79;43998;-18
2020/12/23 21:56:49;;;;;;;0.70;0.60;;;;;;;10.66;100.00;97432.20;3636867;80;44061;-18
2020/12/23 22:01:55;;;;;;;1.37;0.90;;;;;;;10.71;100.00;97420.86;3718686;79;73263;-18
2020/12/23 22:07:01;;;;;;;0.70;0.70;;;;;;;10.69;100.00;97423.75;3706990;79;73219;-18
2020/12/23 22:12:08;;;;;;;0.90;0.75;;;;;;;10.61;100.00;97424.69;3725096;78;44012;-18
2020/12/23 22:17:15;;;;;;;0.50;0.50;;;;;;;10.52;100.00;97439.27;3724316;79;43456;-18
2020/12/23 22:22:21;;;;;;;0.93;0.60;;;;;;;10.61;100.00;97448.92;3731358;79;44077;-18
2020/12/23 22:27:27;;;;;;;0.82;0.60;;;;;;;10.71;100.00;97446.45;3724065;79;44094;-18
2020/12/23 22:32:33;;;;;;;1.98;0.70;;;;;;;10.68;100.00;97442.28;3729320;78;43357;-18
2020/12/23 22:37:39;;;;;;;0.80;0.60;;;;;;;10.76;100.00;97430.58;3718628;79;73295;-18
2020/12/23 22:42:46;;;;;;;0.90;0.60;;;;;;;10.64;100.00;97426.19;3728551;79;43412;-18
2020/12/23 22:47:51;;;;;;;1.13;0.60;;;;;;;10.74;100.00;97431.27;3733552;79;43709;-18
2020/12/23 22:52:58;;;;;;;0.50;0.50;;;;;;;10.79;100.00;97442.34;3728235;79;43016;-18
2020/12/23 22:58:05;;;;;;;0.60;0.60;;;;;;;10.76;100.00;97427.36;3729786;78;44120;-18
2020/12/23 23:03:13;;;;;;;0.93;0.70;;;;;;;10.59;100.00;97428.59;3736791;78;43681;-18
2020/12/23 23:08:19;;;;;;;1.20;0.70;;;;;;;10.47;100.00;97426.36;3734692;79;44599;-18
2020/12/23 23:13:26;;;;;;;0.70;0.57;;;;;;;10.43;100.00;97413.46;3731190;79;42925;-18
2020/12/23 23:18:33;;;;;;;0.93;0.60;;;;;;;10.41;100.00;97410.11;3733031;79;73405;-18
2020/12/23 23:23:39;;;;;;;0.87;0.60;;;;;;;10.36;100.00;97420.06;3721180;79;44071;-18
2020/12/23 23:28:45;;;;;;;1.10;0.70;;;;;;;10.33;100.00;97405.62;3623841;81;73230;-19
2020/12/23 23:33:52;;;;;;;0.80;0.62;;;;;;;10.35;100.00;97417.56;3626273;80;42961;-19
2020/12/23 23:38:57;;;;;;;1.02;0.60;;;;;;;10.40;100.00;97425.45;3665758;79;317296;-18
2020/12/23 23:44:03;;;;;;;1.07;0.80;;;;;;;10.40;100.00;97414.67;3689613;80;44474;-18
2020/12/23 23:49:09;;;;;;;1.15;0.80;;;;;;;10.43;100.00;97425.05;3699211;78;43491;-18